Latest Weather Observations for Viewbank

IDV60901

Issued at 1:41 pm EDT Monday 23 October 2017 (issued every 10 minutes, with the page automatically refreshed every 10 minutes)

About weather observations | Map of Melbourne area stations | Latest observations for Melbourne area | Other Formats
Station Details ID: 086068 Name: VIEWBANK Lat: -37.74 Lon: 145.10 Height: 66.1 m
Data from the previous 72 hours. | See also: Recent months at Viewbank
Date/Time
EDT
Temp
°C
App
Temp
°C
Dew
Point
°C
Rel
Hum
%
Delta-T
°C
Wind Press
QNH
hPa
Press
MSL
hPa
Rain since
9am
mm
Dir  Spd
km/h
Gust
km/h
Spd
kts
Gust
kts
23/01:30pm 19.2 17.8 9.7 54 5.1 ENE 7 13 4 7 1017.6 1017.5 0.0
23/01:00pm 18.3 16.4 9.1 55 4.8 SSW 9 13 5 7 1018.0 1017.9 0.0
23/12:30pm 17.9 16.5 9.5 58 4.4 WNW 7 13 4 7 1018.6 1018.6 0.0
23/12:00pm 16.4 14.8 8.6 60 4.0 NE 7 13 4 7 1018.6 1018.6 0.0
23/11:30am 15.1 13.1 8.8 66 3.2 E 9 15 5 8 1018.9 1018.9 0.0
23/11:00am 15.1 13.9 9.7 70 2.8 E 6 11 3 6 1019.3 1019.3 0.0
23/10:30am 14.3 12.7 8.7 69 2.8 NNW 7 11 4 6 1019.3 1019.3 0.0
23/10:00am 14.2 13.0 9.4 73 2.5 WNW 6 9 3 5 1019.4 1019.4 0.0
23/09:30am 13.3 12.0 9.9 80 1.8 WNW 7 9 4 5 1019.5 1019.5 0.0
23/09:00am 12.7 11.5 10.2 85 1.3 NW 7 11 4 6 1019.4 1019.4 0.0
23/08:30am 12.2 11.2 10.3 88 1.0 WNW 6 9 3 5 1019.3 1019.3 0.0
23/08:00am 11.7 11.1 10.4 92 0.7 WNW 4 7 2 4 1019.2 1019.2 0.0
23/07:30am 11.5 10.4 10.7 95 0.4 W 7 11 4 6 1019.3 1019.3 0.0
23/07:00am 11.4 10.3 10.8 96 0.3 W 7 11 4 6 1019.1 1019.1 0.0
23/06:30am 11.3 10.2 10.8 97 0.3 W 7 13 4 7 1019.0 1019.0 0.0
23/06:00am 11.2 10.2 11.0 99 0.1 W 7 9 4 5 1018.7 1018.7 0.0
23/05:30am 11.3 9.6 11.1 99 0.1 W 11 17 6 9 1018.4 1018.4 0.0
23/05:00am 11.5 10.2 11.3 99 0.1 W 9 13 5 7 1018.4 1018.4 0.0
23/04:30am 11.6 10.9 11.4 99 0.1 W 6 9 3 5 1018.3 1018.3 0.0
23/04:00am 11.8 10.6 11.6 99 0.1 W 9 13 5 7 1018.2 1018.1 0.0
23/03:30am 11.9 11.1 11.7 99 0.1 W 7 9 4 5 1018.4 1018.4 0.0
23/03:00am 12.3 11.4 11.5 95 0.4 W 7 11 4 6 1018.5 1018.5 0.0
23/02:30am 12.6 11.8 11.2 91 0.7 SSW 6 9 3 5 1018.5 1018.5 0.0
23/02:00am 12.6 11.7 11.2 91 0.7 SW 7 11 4 6 1018.6 1018.6 0.0
23/01:30am 12.6 11.4 11.5 93 0.6 SSW 9 13 5 7 1018.8 1018.8 0.0
23/01:00am 12.8 11.2 11.4 91 0.7 SW 11 17 6 9 1019.2 1019.2 0.0
23/12:30am 12.8 11.6 11.7 93 0.6 SW 9 13 5 7 1019.4 1019.4 0.0
23/12:00am 12.8 11.6 11.5 92 0.7 SSW 9 17 5 9 1019.4 1019.4 0.0
 
Date/Time
EDT
Temp
°C
App
Temp
°C
Dew
Point
°C
Rel
Hum
%
Delta-T
°C
Wind Press
QNH
hPa
Press
MSL
hPa
Rain since
9am
mm
Dir  Spd
km/h
Gust
km/h
Spd
kts
Gust
kts
22/11:30pm 13.0 11.0 11.6 91 0.7 SSW 13 19 7 10 1019.4 1019.4 0.0
22/11:00pm 13.2 10.7 11.1 87 1.1 SSW 15 22 8 12 1019.5 1019.5 0.0
22/10:30pm 13.2 11.4 10.9 86 1.2 SSW 11 17 6 9 1019.4 1019.4 0.0
22/10:00pm 13.2 11.8 10.9 86 1.2 SSW 9 15 5 8 1019.6 1019.6 0.0
22/09:30pm 13.2 11.0 10.7 85 1.3 SSW 13 24 7 13 1019.4 1019.4 0.0
22/09:00pm 13.2 11.7 10.6 84 1.4 SSW 9 15 5 8 1019.0 1019.0 0.0
22/08:30pm 13.4 11.1 10.4 82 1.6 SSW 13 20 7 11 1018.8 1018.8 0.0
22/08:00pm 13.6 11.2 10.0 79 1.9 SSW 13 20 7 11 1018.4 1018.4 0.0
22/07:30pm 13.7 10.8 9.6 76 2.1 SSW 15 24 8 13 1018.3 1018.3 0.0
22/07:00pm 13.9 10.6 9.7 76 2.2 SSW 17 24 9 13 1018.0 1017.9 0.0
22/06:30pm 14.2 10.7 10.2 77 2.1 SSW 19 30 10 16 1017.8 1017.7 0.0
22/06:00pm 14.6 11.5 10.2 75 2.3 SSW 17 30 9 16 1017.5 1017.4 0.0
22/05:30pm 15.2 12.4 10.0 71 2.7 SSW 15 22 8 12 1017.3 1017.2 0.0
22/05:00pm 15.9 12.8 10.2 69 3.0 SSW 17 26 9 14 1017.1 1017.0 0.0
22/04:30pm 15.8 12.7 10.3 70 2.9 SW 17 26 9 14 1017.0 1016.9 0.0
22/04:00pm 16.5 13.3 9.9 65 3.5 SW 17 26 9 14 1017.0 1016.9 0.0
22/03:30pm 16.1 13.1 10.6 70 2.9 SW 17 26 9 14 1017.2 1017.1 0.0
22/03:00pm 15.9 13.2 11.7 76 2.3 SW 17 26 9 14 1017.5 1017.4 0.0
22/02:30pm 15.8 12.4 11.2 74 2.5 SW 20 32 11 17 1017.6 1017.5 0.0
22/02:00pm 14.8 13.2 12.8 88 1.1 WSW 13 24 7 13 1017.8 1017.7 0.0
22/01:30pm 14.3 11.6 11.6 84 1.4 SW 17 32 9 17 1018.1 1018.0 0.0
22/01:00pm 15.6 13.8 12.2 80 1.9 SW 13 19 7 10 1018.1 1018.0 0.0
22/12:30pm 14.1 11.9 10.9 81 1.7 SW 13 20 7 11 1018.5 1018.5 0.0
22/12:00pm 14.3 11.9 10.1 76 2.2 SW 13 20 7 11 1018.5 1018.5 0.0
22/11:30am 14.5 12.6 10.5 77 2.1 WSW 11 20 6 11 1018.6 1018.6 0.0
22/11:00am 13.7 11.0 10.5 81 1.7 SW 15 20 8 11 1018.7 1018.7 0.0
22/10:30am 13.3 11.9 11.0 86 1.2 SW 9 13 5 7 1018.9 1018.9 0.0
22/10:00am 12.5 11.2 11.4 93 0.6 SW 9 17 5 9 1018.8 1018.8 0.0
22/09:30am 12.2 10.6 11.7 97 0.3 WSW 11 17 6 9 1018.7 1018.7 0.0
22/09:00am 11.8 10.7 11.8 100 0.0 W 9 17 5 9 1018.5 1018.5 0.8
22/08:30am 10.8 9.7 10.8 100 0.0 W 7 13 4 7 1018.5 1018.5 0.8
22/08:00am 10.6 9.1 10.4 99 0.1 WSW 9 19 5 10 1018.6 1018.6 0.6
22/07:30am 10.5 9.3 10.3 99 0.1 WSW 7 13 4 7 1018.1 1018.0 0.6
22/07:00am 10.4 9.2 10.2 99 0.1 W 7 13 4 7 1018.0 1017.9 0.4
22/06:30am 10.4 8.9 10.4 100 0.0 W 9 15 5 8 1017.7 1017.6 0.4
22/06:00am 10.4 8.4 10.2 99 0.1 W 11 19 6 10 1017.8 1017.7 0.4
22/05:30am 10.3 8.3 10.1 99 0.1 WSW 11 22 6 12 1017.7 1017.6 0.4
22/05:00am 10.4 7.7 10.2 99 0.1 W 15 30 8 16 1017.8 1017.7 0.4
22/04:30am 10.5 8.9 10.3 99 0.1 WSW 9 15 5 8 1018.0 1017.9 0.4
22/04:00am 10.5 8.4 9.7 95 0.4 W 11 17 6 9 1018.2 1018.1 0.4
22/03:30am 10.5 8.4 9.6 94 0.5 W 11 19 6 10 1018.4 1018.4 0.4
22/03:00am 10.8 7.9 8.2 84 1.3 W 13 20 7 11 1019.0 1019.0 0.4
22/02:30am 11.1 8.1 7.8 80 1.6 W 13 24 7 13 1019.3 1019.3 0.4
22/02:00am 10.8 8.7 8.2 84 1.3 W 9 11 5 6 1019.5 1019.5 0.4
22/01:30am 10.8 8.6 8.0 83 1.4 W 9 15 5 8 1019.9 1019.9 0.4
22/01:00am 10.6 8.5 8.2 85 1.2 W 9 13 5 7 1020.3 1020.3 0.4
22/12:30am 11.2 8.4 8.4 83 1.4 WSW 13 22 7 12 1020.4 1020.4 0.4
22/12:00am 11.6 8.8 8.6 82 1.5 WSW 13 20 7 11 1020.5 1020.5 0.4
 
Date/Time
EDT
Temp
°C
App
Temp
°C
Dew
Point
°C
Rel
Hum
%
Delta-T
°C
Wind Press
QNH
hPa
Press
MSL
hPa
Rain since
9am
mm
Dir  Spd
km/h
Gust
km/h
Spd
kts
Gust
kts
21/11:30pm 11.6 9.7 9.2 85 1.2 WSW 9 15 5 8 1020.8 1020.8 0.4
21/11:00pm 11.7 10.9 10.9 95 0.4 W 6 9 3 5 1020.9 1020.9 0.4
21/10:30pm 11.4 10.0 10.9 97 0.3 SSW 9 11 5 6 1021.1 1021.1 0.4
21/10:00pm 11.5 11.2 11.3 99 0.1 W 4 7 2 4 1021.5 1021.5 0.2
21/09:30pm 11.4 10.6 11.2 99 0.1 WSW 6 7 3 4 1021.6 1021.6 0.2
21/09:00pm 11.5 10.6 11.3 99 0.1 SW 7 9 4 5 1021.7 1021.7 0.2
21/08:30pm 11.3 10.3 11.1 99 0.1 SSW 7 11 4 6 1021.7 1021.7 0.2
21/08:00pm 11.3 10.0 11.1 99 0.1 SSW 9 17 5 9 1021.8 1021.8 0.2
21/07:30pm 12.3 9.1 8.4 77 1.9 SSW 15 22 8 12 1021.7 1021.7 0.2
21/07:00pm 12.8 10.2 7.9 72 2.4 SSW 11 19 6 10 1021.5 1021.5 0.2
21/06:30pm 13.3 10.2 7.3 67 2.9 S 13 22 7 12 1021.5 1021.5 0.2
21/06:00pm 13.6 10.4 6.9 64 3.2 SSW 13 22 7 12 1021.6 1021.6 0.2
21/05:30pm 14.0 10.1 7.1 63 3.4 SSW 17 24 9 13 1021.8 1021.8 0.2
21/05:00pm 14.0 10.8 6.8 62 3.5 SSW 13 22 7 12 1021.9 1021.9 0.2
21/04:30pm 15.1 11.4 8.1 63 3.5 SW 17 24 9 13 1022.2 1022.2 0.2
21/04:00pm 14.3 10.8 7.4 63 3.4 SSW 15 22 8 12 1022.5 1022.5 0.2
21/03:30pm 14.6 11.7 8.1 65 3.3 S 13 24 7 13 1022.7 1022.7 0.2
21/03:00pm 13.8 10.1 7.8 67 3.0 SSW 17 30 9 16 1023.1 1023.1 0.2
21/02:30pm 14.3 9.8 7.1 62 3.5 SSW 20 28 11 15 1023.4 1023.4 0.2
21/02:00pm 15.7 12.0 8.0 60 3.9 SW 17 26 9 14 1023.6 1023.6 0.2
21/01:30pm 14.2 10.6 6.8 61 3.6 SW 15 26 8 14 1024.1 1024.1 0.2
21/01:00pm 13.3 9.7 8.2 71 2.5 SW 17 28 9 15 1024.6 1024.6 0.2
21/12:30pm 13.6 10.5 8.7 72 2.5 SW 15 24 8 13 1024.8 1024.8 0.2
21/12:00pm 12.6 8.6 8.3 75 2.1 WSW 19 28 10 15 1025.2 1025.2 0.2
21/11:30am 13.0 10.1 8.3 73 2.3 SW 13 20 7 11 1025.3 1025.3 0.2
21/11:00am 12.2 9.8 8.7 79 1.7 WSW 11 17 6 9 1025.5 1025.5 0.2
21/10:30am 10.8 9.0 9.4 91 0.7 WSW 9 15 5 8 1025.8 1025.8 0.2
21/10:00am 11.6 7.9 7.9 78 1.8 SW 17 30 9 16 1025.9 1025.9 0.0
21/09:30am 10.8 9.2 8.6 86 1.1 SW 7 11 4 6 1025.9 1025.9 0.0
21/09:00am 10.9 8.0 8.3 84 1.3 SW 13 20 7 11 1025.9 1025.9 0.0
21/08:30am 11.2 8.5 7.3 77 1.9 SW 11 20 6 11 1025.8 1025.8 0.0
21/08:00am 10.9 10.0 7.6 80 1.6 WSW 2 6 1 3 1025.8 1025.8 0.0
21/07:30am 10.6 8.4 7.7 82 1.4 W 9 15 5 8 1025.9 1025.9 0.0
21/07:00am 10.8 8.0 7.1 78 1.8 WSW 11 15 6 8 1026.0 1026.0 0.0
21/06:30am 11.1 8.4 5.4 68 2.6 SW 9 15 5 8 1025.9 1025.9 0.0
21/06:00am 11.2 8.0 4.9 65 2.9 SSW 11 17 6 9 1025.9 1025.9 0.0
21/05:30am 11.3 8.1 5.0 65 2.9 SW 11 17 6 9 1025.8 1025.8 0.0
21/05:00am 11.3 7.8 5.6 68 2.6 SW 13 17 7 9 1025.9 1025.9 0.0
21/04:30am 11.3 8.2 5.6 68 2.6 SW 11 19 6 10 1026.0 1026.0 0.0
21/04:00am 11.0 9.1 4.7 65 2.8 SSW 4 9 2 5 1026.3 1026.3 0.0
21/03:30am 11.1 9.5 4.3 63 3.1 SSW 2 7 1 4 1026.5 1026.5 0.0
21/03:00am 11.2 8.3 4.4 63 3.0 SSW 9 15 5 8 1026.7 1026.7 0.0
21/02:30am 11.3 8.3 4.3 62 3.2 SSW 9 19 5 10 1027.0 1027.0 0.0
21/02:00am 11.4 7.7 4.2 61 3.2 SSW 13 24 7 13 1027.3 1027.3 0.0
21/01:30am 11.5 7.0 4.0 60 3.4 SSW 17 26 9 14 1027.5 1027.5 0.0
21/01:00am 11.6 7.5 4.3 61 3.3 SSW 15 26 8 14 1027.8 1027.8 0.0
21/12:30am 11.6 8.2 4.1 60 3.4 SSW 11 13 6 7 1028.1 1028.0 0.0
21/12:00am 11.7 7.9 4.0 59 3.4 SSW 13 19 7 10 1028.3 1028.2 0.0
 
Date/Time
EDT
Temp
°C
App
Temp
°C
Dew
Point
°C
Rel
Hum
%
Delta-T
°C
Wind Press
QNH
hPa
Press
MSL
hPa
Rain since
9am
mm
Dir  Spd
km/h
Gust
km/h
Spd
kts
Gust
kts
20/11:30pm 11.8 7.7 4.3 60 3.4 SSW 15 24 8 13 1028.4 1028.3 0.0
20/11:00pm 11.7 7.9 4.0 59 3.4 SSW 13 19 7 10 1028.5 1028.4 0.0
20/10:30pm 11.7 6.8 4.2 60 3.4 SSW 19 26 10 14 1028.8 1028.7 0.0
20/10:00pm 11.6 7.8 3.9 59 3.4 SSW 13 20 7 11 1028.9 1028.8 0.0
20/09:30pm 11.7 7.6 4.2 60 3.4 SSW 15 32 8 17 1028.8 1028.7 0.0
20/09:00pm 12.1 7.3 4.8 61 3.3 SSW 19 32 10 17 1028.8 1028.7 0.0
20/08:30pm 12.3 7.5 5.5 63 3.2 SW 20 30 11 16 1028.6 1028.5 0.0
20/08:00pm 12.3 7.4 5.0 61 3.3 SW 20 28 11 15 1028.4 1028.3 0.0
20/07:30pm 12.0 6.6 4.5 60 3.4 SW 22 35 12 19 1028.1 1028.0 0.0
20/07:00pm 12.9 7.8 4.3 56 3.9 SW 20 37 11 20 1027.9 1027.9 0.0
20/06:30pm 13.3 7.7 3.4 51 4.4 SW 22 35 12 19 1027.6 1027.6 0.0
20/06:00pm 14.0 7.8 2.3 45 5.1 SW 24 37 13 20 1027.4 1027.4 0.0
20/05:30pm 14.8 8.9 3.9 48 5.0 SW 24 39 13 21 1027.2 1027.2 0.0
20/05:00pm 15.3 10.0 2.8 43 5.6 SW 20 35 11 19 1027.1 1027.1 0.0
20/04:30pm 15.7 10.5 3.8 45 5.5 SSW 20 37 11 20 1027.0 1027.0 0.0
20/04:00pm 15.6 9.8 4.3 47 5.2 SSW 24 39 13 21 1027.0 1027.0 0.0
20/03:36pm 15.7 9.3 5.0 49 5.1 SW 28 46 15 25 1026.9 1026.9 0.0
20/03:30pm 15.7 10.1 5.3 50 5.0 SW 24 37 13 20 1027.0 1027.0 0.0
20/03:00pm 15.8 9.5 3.6 44 5.6 SW 26 41 14 22 1027.2 1027.2 0.0
20/02:30pm 16.3 10.6 3.0 41 6.1 SW 22 35 12 19 1027.3 1027.3 0.0
20/02:00pm 16.4 11.2 3.8 43 5.8 SW 20 35 11 19 1027.4 1027.4 0.0

Latest Capital City Observations: Canberra | Sydney | Melbourne | Brisbane | Adelaide | Perth | Hobart | Darwin

Other Formats:

Comma delimited format used in spreadsheet applications
http://www.bom.gov.au/fwo/IDV60901/IDV60901.95874.axf

JavaScript Object Notation format (JSON) in row-major order
http://www.bom.gov.au/fwo/IDV60901/IDV60901.95874.json